sensor_id;sensor_type;location;lat;lon;timestamp;pressure;altitude;pressure_sealevel;temperature;humidity
62111;BME280;48102;47.526;19.072;2023-06-14T03:42:15;100208.62;;;11.64;100.00
62111;BME280;48102;47.526;19.072;2023-06-14T03:45:18;100208.62;;;11.64;100.00
62111;BME280;48102;47.526;19.072;2023-06-14T03:48:22;100211.59;;;11.26;100.00
62111;BME280;48102;47.526;19.072;2023-06-14T03:51:25;100215.44;;;11.36;100.00
62111;BME280;48102;47.526;19.072;2023-06-14T03:54:28;100216.63;;;11.46;100.00
62111;BME280;48102;47.526;19.072;2023-06-14T03:57:52;100212.53;;;11.56;100.00
62111;BME280;48102;47.526;19.072;2023-06-14T04:00:55;100218.06;;;11.68;100.00
62111;BME280;48102;47.526;19.072;2023-06-14T04:03:59;100217.38;;;11.80;100.00
62111;BME280;48102;47.526;19.072;2023-06-14T04:07:02;100211.34;;;11.94;100.00
62111;BME280;48102;47.526;19.072;2023-06-14T04:10:07;100216.78;;;12.07;100.00
62111;BME280;48102;47.526;19.072;2023-06-14T04:13:10;100224.56;;;12.24;100.00
62111;BME280;48102;47.526;19.072;2023-06-14T04:16:17;100226.13;;;12.42;100.00
62111;BME280;48102;47.526;19.072;2023-06-14T04:19:19;100218.12;;;12.58;100.00
62111;BME280;48102;47.526;19.072;2023-06-14T04:22:22;100225.91;;;12.75;100.00
62111;BME280;48102;47.526;19.072;2023-06-14T04:25:25;100234.59;;;12.92;100.00
62111;BME280;48102;47.526;19.072;2023-06-14T04:28:30;100235.53;;;13.05;100.00
62111;BME280;48102;47.526;19.072;2023-06-14T04:31:34;100237.16;;;13.22;100.00
62111;BME280;48102;47.526;19.072;2023-06-14T04:34:37;100238.84;;;13.37;100.00
62111;BME280;48102;47.526;19.072;2023-06-14T04:37:40;100237.59;;;13.57;100.00
62111;BME280;48102;47.526;19.072;2023-06-14T04:40:44;100234.06;;;13.71;100.00
62111;BME280;48102;47.526;19.072;2023-06-14T04:43:49;100236.00;;;13.81;100.00
62111;BME280;48102;47.526;19.072;2023-06-14T04:46:52;100242.78;;;14.00;100.00
62111;BME280;48102;47.526;19.072;2023-06-14T04:49:57;100241.66;;;14.17;100.00
62111;BME280;48102;47.526;19.072;2023-06-14T04:53:00;100241.78;;;14.28;100.00
62111;BME280;48102;47.526;19.072;2023-06-14T04:56:03;100243.41;;;14.43;100.00
62111;BME280;48102;47.526;19.072;2023-06-14T04:59:07;100245.03;;;14.59;100.00
62111;BME280;48102;47.526;19.072;2023-06-14T05:02:11;100252.94;;;14.73;100.00
62111;BME280;48102;47.526;19.072;2023-06-14T05:05:15;100243.91;;;14.88;100.00
62111;BME280;48102;47.526;19.072;2023-06-14T05:08:20;100251.22;;;14.97;100.00
62111;BME280;48102;47.526;19.072;2023-06-14T05:11:26;100259.59;;;15.17;100.00
62111;BME280;48102;47.526;19.072;2023-06-14T05:14:29;100250.87;;;15.27;100.00
62111;BME280;48102;47.526;19.072;2023-06-14T05:17:32;100250.00;;;15.40;100.00
62111;BME280;48102;47.526;19.072;2023-06-14T05:20:39;100248.47;;;15.61;100.00
62111;BME280;48102;47.526;19.072;2023-06-14T05:23:45;100246.47;;;15.89;100.00
62111;BME280;48102;47.526;19.072;2023-06-14T05:26:48;100251.16;;;16.33;100.00
62111;BME280;48102;47.526;19.072;2023-06-14T05:29:51;100260.28;;;16.53;100.00
62111;BME280;48102;47.526;19.072;2023-06-14T05:32:58;100256.19;;;16.60;100.00
62111;BME280;48102;47.526;19.072;2023-06-14T05:36:01;100254.59;;;16.46;100.00
62111;BME280;48102;47.526;19.072;2023-06-14T05:39:03;100256.31;;;16.23;100.00
62111;BME280;48102;47.526;19.072;2023-06-14T05:42:08;100254.97;;;16.18;100.00
62111;BME280;48102;47.526;19.072;2023-06-14T05:45:13;100254.25;;;16.16;100.00
62111;BME280;48102;47.526;19.072;2023-06-14T05:48:20;100253.94;;;16.31;100.00
62111;BME280;48102;47.526;19.072;2023-06-14T05:51:23;100259.88;;;16.35;100.00
62111;BME280;48102;47.526;19.072;2023-06-14T05:54:28;100255.16;;;16.39;100.00
62111;BME280;48102;47.526;19.072;2023-06-14T05:57:31;100260.69;;;16.71;100.00
62111;BME280;48102;47.526;19.072;2023-06-14T06:00:33;100260.69;;;17.06;100.00
62111;BME280;48102;47.526;19.072;2023-06-14T06:03:36;100260.53;;;17.52;100.00
62111;BME280;48102;47.526;19.072;2023-06-14T06:06:39;100263.41;;;17.83;100.00
62111;BME280;48102;47.526;19.072;2023-06-14T06:09:42;100268.94;;;18.35;100.00
62111;BME280;48102;47.526;19.072;2023-06-14T06:12:45;100267.28;;;18.54;98.36
62111;BME280;48102;47.526;19.072;2023-06-14T06:15:50;100266.47;;;18.43;95.97
62111;BME280;48102;47.526;19.072;2023-06-14T06:18:52;100265.38;;;18.45;97.19
62111;BME280;48102;47.526;19.072;2023-06-14T06:21:55;100257.03;;;18.39;97.62
62111;BME280;48102;47.526;19.072;2023-06-14T06:24:58;100264.56;;;18.45;97.27
62111;BME280;48102;47.526;19.072;2023-06-14T06:28:01;100265.25;;;18.47;97.44
62111;BME280;48102;47.526;19.072;2023-06-14T06:31:04;100259.41;;;18.53;94.55
62111;BME280;48102;47.526;19.072;2023-06-14T06:34:07;100262.12;;;18.74;92.97
62111;BME280;48102;47.526;19.072;2023-06-14T06:37:10;100272.25;;;19.01;94.93
62111;BME280;48102;47.526;19.072;2023-06-14T06:40:13;100269.84;;;18.98;92.18
62111;BME280;48102;47.526;19.072;2023-06-14T06:43:16;100268.41;;;18.94;90.60
62111;BME280;48102;47.526;19.072;2023-06-14T06:46:20;100270.25;;;18.72;92.57
62111;BME280;48102;47.526;19.072;2023-06-14T06:49:23;100262.19;;;18.84;92.38
62111;BME280;48102;47.526;19.072;2023-06-14T06:52:26;100262.84;;;19.37;92.11
62111;BME280;48102;47.526;19.072;2023-06-14T06:55:29;100267.37;;;19.77;92.27
62111;BME280;48102;47.526;19.072;2023-06-14T06:58:33;100266.25;;;19.39;89.05
62111;BME280;48102;47.526;19.072;2023-06-14T07:01:35;100270.91;;;19.16;92.75
62111;BME280;48102;47.526;19.072;2023-06-14T07:04:39;100265.53;;;19.37;92.26
62111;BME280;48102;47.526;19.072;2023-06-14T07:07:42;100258.53;;;19.86;87.25
62111;BME280;48102;47.526;19.072;2023-06-14T07:10:45;100258.13;;;20.10;83.17
62111;BME280;48102;47.526;19.072;2023-06-14T07:13:47;100270.41;;;20.32;82.26
62111;BME280;48102;47.526;19.072;2023-06-14T07:16:51;100269.28;;;20.44;78.64
62111;BME280;48102;47.526;19.072;2023-06-14T07:19:53;100265.22;;;20.60;79.41
62111;BME280;48102;47.526;19.072;2023-06-14T07:22:56;100281.25;;;20.40;76.79
62111;BME280;48102;47.526;19.072;2023-06-14T07:25:59;100278.31;;;20.34;81.22
62111;BME280;48102;47.526;19.072;2023-06-14T07:29:02;100276.03;;;20.29;77.91
62111;BME280;48102;47.526;19.072;2023-06-14T07:32:06;100271.25;;;20.13;82.49
62111;BME280;48102;47.526;19.072;2023-06-14T07:35:09;100274.47;;;20.07;79.52
62111;BME280;48102;47.526;19.072;2023-06-14T07:38:12;100278.94;;;19.87;79.44
62111;BME280;48102;47.526;19.072;2023-06-14T07:41:18;100271.09;;;20.05;77.45
62111;BME280;48102;47.526;19.072;2023-06-14T07:44:20;100272.94;;;20.63;70.61
62111;BME280;48102;47.526;19.072;2023-06-14T07:47:23;100275.94;;;21.07;66.40
62111;BME280;48102;47.526;19.072;2023-06-14T07:50:26;100284.09;;;21.34;67.71
62111;BME280;48102;47.526;19.072;2023-06-14T07:53:31;100273.00;;;21.74;61.11
62111;BME280;48102;47.526;19.072;2023-06-14T07:56:36;100278.63;;;21.81;61.49
62111;BME280;48102;47.526;19.072;2023-06-14T07:59:41;100276.72;;;21.91;61.97
62111;BME280;48102;47.526;19.072;2023-06-14T08:02:44;100286.06;;;22.15;60.64
62111;BME280;48102;47.526;19.072;2023-06-14T08:05:49;100287.38;;;22.01;65.66
62111;BME280;48102;47.526;19.072;2023-06-14T08:08:51;100286.72;;;22.70;61.60
62111;BME280;48102;47.526;19.072;2023-06-14T08:11:54;100292.84;;;22.98;56.48
62111;BME280;48102;47.526;19.072;2023-06-14T08:14:59;100288.72;;;23.12;57.50
62111;BME280;48102;47.526;19.072;2023-06-14T08:18:15;100284.63;;;23.00;55.75
62111;BME280;48102;47.526;19.072;2023-06-14T08:21:18;100286.56;;;23.16;60.46
62111;BME280;48102;47.526;19.072;2023-06-14T08:24:22;100287.69;;;23.39;58.19
62111;BME280;48102;47.526;19.072;2023-06-14T08:27:30;100285.38;;;23.44;53.76
62111;BME280;48102;47.526;19.072;2023-06-14T08:30:35;100284.69;;;23.08;52.59
62111;BME280;48102;47.526;19.072;2023-06-14T08:33:40;100289.38;;;22.88;59.33
62111;BME280;48102;47.526;19.072;2023-06-14T08:36:46;100298.78;;;23.70;56.79
62111;BME280;48102;47.526;19.072;2023-06-14T08:39:48;100299.81;;;24.36;53.76
62111;BME280;48102;47.526;19.072;2023-06-14T08:42:54;100298.50;;;24.40;53.76
62111;BME280;48102;47.526;19.072;2023-06-14T08:46:03;100304.69;;;24.33;49.73
62111;BME280;48102;47.526;19.072;2023-06-14T08:49:08;100303.44;;;23.94;51.81
62111;BME280;48102;47.526;19.072;2023-06-14T08:52:15;100303.97;;;23.64;53.34
62111;BME280;48102;47.526;19.072;2023-06-14T08:55:22;100305.56;;;23.48;49.91
62111;BME280;48102;47.526;19.072;2023-06-14T08:58:30;100310.97;;;23.57;51.81
62111;BME280;48102;47.526;19.072;2023-06-14T09:01:34;100317.97;;;23.67;53.79
62111;BME280;48102;47.526;19.072;2023-06-14T09:04:37;100327.97;;;23.91;52.38
62111;BME280;48102;47.526;19.072;2023-06-14T09:07:40;100333.53;;;23.90;52.03
62111;BME280;48102;47.526;19.072;2023-06-14T09:10:44;100328.44;;;23.78;52.21
62111;BME280;48102;47.526;19.072;2023-06-14T09:13:49;100325.03;;;24.19;54.37
62111;BME280;48102;47.526;19.072;2023-06-14T09:16:53;100336.22;;;24.40;51.04
62111;BME280;48102;47.526;19.072;2023-06-14T09:19:56;100326.75;;;24.36;48.13
62111;BME280;48102;47.526;19.072;2023-06-14T09:23:01;100328.63;;;24.52;48.48
62111;BME280;48102;47.526;19.072;2023-06-14T09:29:16;100329.44;;;24.36;50.38
62111;BME280;48102;47.526;19.072;2023-06-14T09:32:20;100332.13;;;24.28;50.35
62111;BME280;48102;47.526;19.072;2023-06-14T09:35:23;100326.97;;;23.92;49.35
62111;BME280;48102;47.526;19.072;2023-06-14T09:38:27;100321.00;;;23.72;49.57
62111;BME280;48102;47.526;19.072;2023-06-14T09:41:31;100315.72;;;23.63;51.10
62111;BME280;48102;47.526;19.072;2023-06-14T09:44:34;100320.56;;;23.25;52.60
62111;BME280;48102;47.526;19.072;2023-06-14T09:47:38;100308.56;;;23.71;51.95
62111;BME280;48102;47.526;19.072;2023-06-14T09:50:55;100307.56;;;23.72;49.85
62111;BME280;48102;47.526;19.072;2023-06-14T09:54:01;100298.91;;;23.61;52.28
62111;BME280;48102;47.526;19.072;2023-06-14T09:57:07;100306.03;;;24.28;49.07
62111;BME280;48102;47.526;19.072;2023-06-14T10:00:13;100300.81;;;24.35;47.12
62111;BME280;48102;47.526;19.072;2023-06-14T10:03:27;100298.84;;;24.37;44.92
62111;BME280;48102;47.526;19.072;2023-06-14T10:06:46;100299.69;;;23.87;42.68
62111;BME280;48102;47.526;19.072;2023-06-14T10:09:52;100298.59;;;24.06;50.37
62111;BME280;48102;47.526;19.072;2023-06-14T10:12:55;100291.09;;;24.50;43.47
62111;BME280;48102;47.526;19.072;2023-06-14T10:19:32;100286.53;;;25.00;43.60
62111;BME280;48102;47.526;19.072;2023-06-14T10:22:43;100284.19;;;24.89;40.24
62111;BME280;48102;47.526;19.072;2023-06-14T10:25:54;100279.97;;;24.86;38.95
62111;BME280;48102;47.526;19.072;2023-06-14T10:29:09;100282.50;;;25.51;45.18
62111;BME280;48102;47.526;19.072;2023-06-14T10:32:12;100279.22;;;25.72;38.68
62111;BME280;48102;47.526;19.072;2023-06-14T10:35:16;100273.25;;;26.16;39.40
62111;BME280;48102;47.526;19.072;2023-06-14T10:38:30;100277.63;;;26.48;40.16
62111;BME280;48102;47.526;19.072;2023-06-14T10:41:39;100269.56;;;27.16;39.81
62111;BME280;48102;47.526;19.072;2023-06-14T10:44:55;100269.56;;;27.75;39.20
62111;BME280;48102;47.526;19.072;2023-06-14T10:48:00;100278.13;;;28.51;37.18
62111;BME280;48102;47.526;19.072;2023-06-14T10:51:05;100274.25;;;28.39;31.91
62111;BME280;48102;47.526;19.072;2023-06-14T10:54:11;100275.09;;;28.39;35.09
62111;BME280;48102;47.526;19.072;2023-06-14T10:57:15;100272.09;;;28.34;32.69
62111;BME280;48102;47.526;19.072;2023-06-14T11:00:25;100276.47;;;27.78;34.98
62111;BME280;48102;47.526;19.072;2023-06-14T11:07:10;100264.75;;;27.92;35.47
62111;BME280;48102;47.526;19.072;2023-06-14T11:13:44;100262.53;;;27.81;36.52
62111;BME280;48102;47.526;19.072;2023-06-14T11:16:49;100258.09;;;27.14;37.19
62111;BME280;48102;47.526;19.072;2023-06-14T11:20:10;100260.53;;;27.38;38.35
62111;BME280;48102;47.526;19.072;2023-06-14T11:23:21;100256.84;;;27.90;38.92
62111;BME280;48102;47.526;19.072;2023-06-14T11:26:33;100250.16;;;29.35;38.18
62111;BME280;48102;47.526;19.072;2023-06-14T11:29:37;100256.72;;;29.54;33.36
62111;BME280;48102;47.526;19.072;2023-06-14T11:32:40;100250.84;;;30.05;36.03
62111;BME280;48102;47.526;19.072;2023-06-14T11:35:43;100245.84;;;30.08;34.59
62111;BME280;48102;47.526;19.072;2023-06-14T11:38:47;100242.91;;;30.03;37.28
62111;BME280;48102;47.526;19.072;2023-06-14T11:41:52;100260.97;;;30.44;35.21
62111;BME280;48102;47.526;19.072;2023-06-14T11:44:56;100252.62;;;31.70;34.13
62111;BME280;48102;47.526;19.072;2023-06-14T11:48:10;100258.25;;;32.77;32.13
62111;BME280;48102;47.526;19.072;2023-06-14T11:51:13;100253.19;;;32.80;31.90
62111;BME280;48102;47.526;19.072;2023-06-14T11:54:16;100254.13;;;32.42;31.37
62111;BME280;48102;47.526;19.072;2023-06-14T11:57:22;100250.75;;;30.86;32.47
62111;BME280;48102;47.526;19.072;2023-06-14T12:00:25;100241.22;;;31.41;35.83
62111;BME280;48102;47.526;19.072;2023-06-14T12:03:30;100252.41;;;34.20;29.52
62111;BME280;48102;47.526;19.072;2023-06-14T12:06:34;100249.91;;;34.72;30.91
62111;BME280;48102;47.526;19.072;2023-06-14T12:13:10;100258.84;;;36.69;27.67
62111;BME280;48102;47.526;19.072;2023-06-14T12:16:13;100260.56;;;37.09;26.55
62111;BME280;48102;47.526;19.072;2023-06-14T12:19:17;100259.06;;;35.13;29.26
62111;BME280;48102;47.526;19.072;2023-06-14T12:22:20;100247.63;;;32.37;32.88
62111;BME280;48102;47.526;19.072;2023-06-14T12:25:29;100250.03;;;31.82;31.44
62111;BME280;48102;47.526;19.072;2023-06-14T12:28:34;100242.88;;;34.88;31.47
62111;BME280;48102;47.526;19.072;2023-06-14T12:31:36;100247.13;;;33.58;30.53
62111;BME280;48102;47.526;19.072;2023-06-14T12:34:39;100248.22;;;34.17;33.00
62111;BME280;48102;47.526;19.072;2023-06-14T12:37:42;100252.53;;;33.47;30.38
62111;BME280;48102;47.526;19.072;2023-06-14T12:40:45;100245.84;;;31.34;30.78
62111;BME280;48102;47.526;19.072;2023-06-14T12:43:49;100247.19;;;30.59;32.28
62111;BME280;48102;47.526;19.072;2023-06-14T12:46:52;100247.44;;;29.83;33.65
62111;BME280;48102;47.526;19.072;2023-06-14T12:49:57;100242.97;;;30.30;34.47
62111;BME280;48102;47.526;19.072;2023-06-14T12:53:00;100246.47;;;32.58;31.87
62111;BME280;48102;47.526;19.072;2023-06-14T12:56:03;100248.78;;;35.55;28.33
62111;BME280;48102;47.526;19.072;2023-06-14T12:59:06;100244.56;;;35.12;25.21
62111;BME280;48102;47.526;19.072;2023-06-14T13:02:14;100240.84;;;35.71;28.08
62111;BME280;48102;47.526;19.072;2023-06-14T13:05:18;100242.06;;;37.43;25.94
62111;BME280;48102;47.526;19.072;2023-06-14T13:08:20;100233.56;;;36.50;27.50
62111;BME280;48102;47.526;19.072;2023-06-14T13:11:27;100234.19;;;34.56;28.35
62111;BME280;48102;47.526;19.072;2023-06-14T13:14:29;100238.81;;;32.41;30.75
62111;BME280;48102;47.526;19.072;2023-06-14T13:17:33;100225.59;;;31.10;30.83
62111;BME280;48102;47.526;19.072;2023-06-14T13:20:41;100223.28;;;29.46;32.53
62111;BME280;48102;47.526;19.072;2023-06-14T13:23:44;100220.97;;;28.53;33.41
62111;BME280;48102;47.526;19.072;2023-06-14T13:26:47;100225.91;;;27.85;36.53
62111;BME280;48102;47.526;19.072;2023-06-14T13:29:50;100226.06;;;27.62;35.14
62111;BME280;48102;47.526;19.072;2023-06-14T13:32:52;100213.91;;;27.21;36.22
62111;BME280;48102;47.526;19.072;2023-06-14T13:35:55;100213.63;;;27.16;35.50
62111;BME280;48102;47.526;19.072;2023-06-14T13:38:58;100211.34;;;27.05;34.84
62111;BME280;48102;47.526;19.072;2023-06-14T13:42:01;100216.28;;;26.87;35.17
62111;BME280;48102;47.526;19.072;2023-06-14T13:45:05;100215.09;;;27.19;37.76
62111;BME280;48102;47.526;19.072;2023-06-14T13:48:08;100210.34;;;27.72;33.54
62111;BME280;48102;47.526;19.072;2023-06-14T13:51:11;100211.75;;;29.38;33.22
62111;BME280;48102;47.526;19.072;2023-06-14T13:54:19;100211.59;;;30.60;29.75
62111;BME280;48102;47.526;19.072;2023-06-14T13:57:23;100203.41;;;30.14;29.70
62111;BME280;48102;47.526;19.072;2023-06-14T14:00:26;100205.97;;;30.88;29.56
62111;BME280;48102;47.526;19.072;2023-06-14T14:03:29;100214.91;;;30.03;30.08
62111;BME280;48102;47.526;19.072;2023-06-14T14:06:31;100204.44;;;30.13;31.65
62111;BME280;48102;47.526;19.072;2023-06-14T14:09:35;100212.44;;;30.47;30.38
62111;BME280;48102;47.526;19.072;2023-06-14T14:12:40;100205.12;;;30.81;32.86
62111;BME280;48102;47.526;19.072;2023-06-14T14:15:43;100210.78;;;31.58;31.25
62111;BME280;48102;47.526;19.072;2023-06-14T14:18:46;100200.47;;;30.09;28.87
62111;BME280;48102;47.526;19.072;2023-06-14T14:21:49;100204.66;;;29.37;31.82
62111;BME280;48102;47.526;19.072;2023-06-14T14:24:52;100207.56;;;29.00;30.06
62111;BME280;48102;47.526;19.072;2023-06-14T14:27:55;100213.87;;;28.52;32.68
62111;BME280;48102;47.526;19.072;2023-06-14T14:30:58;100213.00;;;28.44;32.24
62111;BME280;48102;47.526;19.072;2023-06-14T14:34:02;100194.13;;;28.58;35.63
62111;BME280;48102;47.526;19.072;2023-06-14T14:37:04;100201.38;;;29.07;31.75
62111;BME280;48102;47.526;19.072;2023-06-14T14:40:08;100204.44;;;29.93;31.14
62111;BME280;48102;47.526;19.072;2023-06-14T14:43:11;100205.88;;;32.36;26.68
62111;BME280;48102;47.526;19.072;2023-06-14T14:46:14;100201.44;;;34.61;23.87
62111;BME280;48102;47.526;19.072;2023-06-14T14:49:19;100207.94;;;36.45;21.68
62111;BME280;48102;47.526;19.072;2023-06-14T14:52:23;100206.22;;;38.36;19.97
62111;BME280;48102;47.526;19.072;2023-06-14T14:55:26;100219.75;;;40.61;18.06
62111;BME280;48102;47.526;19.072;2023-06-14T14:58:29;100212.12;;;38.55;18.57
62111;BME280;48102;47.526;19.072;2023-06-14T15:01:31;100202.91;;;35.51;21.69
62111;BME280;48102;47.526;19.072;2023-06-14T15:04:35;100197.22;;;33.51;23.31
62111;BME280;48102;47.526;19.072;2023-06-14T15:07:37;100200.00;;;31.31;26.32
62111;BME280;48102;47.526;19.072;2023-06-14T15:10:42;100189.13;;;29.72;27.63
62111;BME280;48102;47.526;19.072;2023-06-14T15:13:46;100186.28;;;28.20;31.01
62111;BME280;48102;47.526;19.072;2023-06-14T15:16:50;100185.34;;;27.70;30.67
62111;BME280;48102;47.526;19.072;2023-06-14T15:19:52;100179.53;;;26.92;32.12
62111;BME280;48102;47.526;19.072;2023-06-14T15:22:55;100187.06;;;26.52;32.32
62111;BME280;48102;47.526;19.072;2023-06-14T15:26:02;100189.78;;;26.30;33.48
62111;BME280;48102;47.526;19.072;2023-06-14T15:29:04;100181.69;;;26.07;35.66
62111;BME280;48102;47.526;19.072;2023-06-14T15:32:08;100182.66;;;25.91;36.62
62111;BME280;48102;47.526;19.072;2023-06-14T15:35:11;100171.28;;;25.41;36.65
62111;BME280;48102;47.526;19.072;2023-06-14T15:38:15;100179.81;;;25.22;38.08
62111;BME280;48102;47.526;19.072;2023-06-14T15:41:18;100171.25;;;25.10;38.42
62111;BME280;48102;47.526;19.072;2023-06-14T15:44:21;100174.50;;;25.68;39.99
62111;BME280;48102;47.526;19.072;2023-06-14T15:47:24;100168.81;;;27.29;37.00
62111;BME280;48102;47.526;19.072;2023-06-14T15:50:27;100170.88;;;28.42;35.88
62111;BME280;48102;47.526;19.072;2023-06-14T15:53:30;100177.03;;;28.92;35.44
62111;BME280;48102;47.526;19.072;2023-06-14T15:56:33;100179.50;;;28.31;35.96
62111;BME280;48102;47.526;19.072;2023-06-14T15:59:36;100173.56;;;26.97;35.29
